createdAt,value
2018-01-11T00:00:01.408Z,0
2018-01-11T00:01:02.130Z,0
2018-01-11T00:02:02.839Z,0
2018-01-11T00:03:03.546Z,0
2018-01-11T00:04:04.253Z,0
2018-01-11T00:05:04.974Z,0
2018-01-11T00:06:05.708Z,0
2018-01-11T00:07:06.402Z,0
2018-01-11T00:08:07.110Z,0
2018-01-11T00:09:07.818Z,0
2018-01-11T00:10:08.539Z,0
2018-01-11T00:11:09.262Z,0
2018-01-11T00:12:09.971Z,0
2018-01-11T00:13:10.680Z,0
2018-01-11T00:14:11.389Z,0
2018-01-11T00:15:12.098Z,0
2018-01-11T00:16:12.820Z,0
2018-01-11T00:17:13.527Z,0
2018-01-11T00:18:14.236Z,0
2018-01-11T00:19:14.943Z,0
2018-01-11T00:20:15.667Z,0
2018-01-11T00:21:16.386Z,0
2018-01-11T00:22:17.105Z,0
2018-01-11T00:23:17.814Z,0
2018-01-11T00:24:18.522Z,0
2018-01-11T00:25:19.230Z,0
2018-01-11T00:26:19.937Z,0
2018-01-11T00:27:20.646Z,0
2018-01-11T00:28:21.355Z,0
2018-01-11T00:29:22.064Z,0
2018-01-11T00:30:22.773Z,0
2018-01-11T00:31:23.481Z,0
2018-01-11T00:32:24.189Z,0
2018-01-11T00:33:24.911Z,0
2018-01-11T00:34:25.632Z,0
2018-01-11T00:35:26.342Z,0
2018-01-11T00:36:27.051Z,0
2018-01-11T00:37:27.760Z,0
2018-01-11T00:38:28.468Z,0
2018-01-11T00:39:29.197Z,0
2018-01-11T00:40:29.904Z,0
2018-01-11T00:41:30.629Z,0
2018-01-11T00:42:31.336Z,0
2018-01-11T00:43:32.044Z,0
2018-01-11T00:44:32.751Z,0
2018-01-11T00:45:33.472Z,0
2018-01-11T00:46:34.180Z,0
2018-01-11T00:47:34.890Z,0
2018-01-11T00:48:35.597Z,0
2018-01-11T00:49:36.304Z,0
2018-01-11T00:50:37.010Z,0
2018-01-11T00:51:37.718Z,0
2018-01-11T00:52:38.423Z,0
2018-01-11T00:53:39.130Z,0
2018-01-11T00:54:39.837Z,0
2018-01-11T00:55:40.544Z,0
2018-01-11T00:56:41.251Z,0
2018-01-11T00:57:41.960Z,0
2018-01-11T00:58:42.667Z,0
2018-01-11T00:59:43.375Z,0
2018-01-11T01:00:44.085Z,0
2018-01-11T01:01:44.794Z,0
2018-01-11T01:02:45.504Z,0
2018-01-11T01:03:46.213Z,0
2018-01-11T01:04:46.924Z,0
2018-01-11T01:05:47.644Z,0
2018-01-11T01:06:48.355Z,0
2018-01-11T01:07:49.075Z,0
2018-01-11T01:08:49.787Z,0
2018-01-11T01:09:50.494Z,0
2018-01-11T01:10:51.202Z,0
2018-01-11T01:11:51.910Z,0
2018-01-11T01:12:52.618Z,0
2018-01-11T01:13:53.326Z,0
2018-01-11T01:14:54.046Z,0
2018-01-11T01:15:54.754Z,0
2018-01-11T01:16:55.462Z,0
2018-01-11T01:17:56.171Z,0
2018-01-11T01:18:56.879Z,0
2018-01-11T01:19:57.586Z,0
2018-01-11T01:20:58.297Z,0
2018-01-11T01:21:59.001Z,0
2018-01-11T01:22:59.722Z,0
2018-01-11T01:24:00.443Z,0
2018-01-11T01:25:01.151Z,0
2018-01-11T01:26:01.858Z,0
2018-01-11T01:27:02.567Z,0
2018-01-11T01:28:03.273Z,0
2018-01-11T01:29:03.980Z,0
2018-01-11T01:30:04.687Z,0
2018-01-11T01:31:05.395Z,0
2018-01-11T01:32:06.104Z,0
2018-01-11T01:33:06.826Z,0
2018-01-11T01:34:07.535Z,0
2018-01-11T01:35:08.244Z,0
2018-01-11T01:36:08.950Z,0
2018-01-11T01:37:09.662Z,0
2018-01-11T01:38:10.366Z,0
2018-01-11T01:39:11.073Z,0
2018-01-11T01:40:11.783Z,0
2018-01-11T01:41:12.489Z,0
2018-01-11T01:42:13.211Z,0
2018-01-11T01:43:13.934Z,0
2018-01-11T01:44:14.644Z,0
2018-01-11T01:45:15.352Z,0
2018-01-11T01:46:16.076Z,0
2018-01-11T01:47:16.783Z,0
2018-01-11T01:48:17.508Z,0
2018-01-11T01:49:18.218Z,0
2018-01-11T01:50:18.927Z,0
2018-01-11T01:51:19.634Z,0
2018-01-11T01:52:20.342Z,0
2018-01-11T01:53:21.063Z,0
2018-01-11T01:54:21.773Z,0
2018-01-11T01:55:22.481Z,0
2018-01-11T01:56:23.204Z,0
2018-01-11T01:57:23.926Z,0
2018-01-11T01:58:24.634Z,0
2018-01-11T01:59:25.343Z,0
2018-01-11T02:00:26.069Z,0
2018-01-11T02:01:26.777Z,0
2018-01-11T02:02:27.484Z,0
2018-01-11T02:03:28.219Z,0
2018-01-11T02:04:28.915Z,0
2018-01-11T02:05:29.622Z,0
2018-01-11T02:06:30.346Z,0
2018-01-11T02:07:31.055Z,0
2018-01-11T02:08:31.764Z,0
2018-01-11T02:09:32.474Z,0
2018-01-11T02:10:33.182Z,0
2018-01-11T02:11:33.891Z,0
2018-01-11T02:12:34.599Z,0
2018-01-11T02:13:35.323Z,0
2018-01-11T02:14:36.034Z,0
2018-01-11T02:15:36.743Z,0
2018-01-11T02:16:37.451Z,0
2018-01-11T02:17:38.174Z,0
2018-01-11T02:18:38.898Z,0
2018-01-11T02:19:39.622Z,0
2018-01-11T02:20:40.332Z,0
2018-01-11T02:21:41.042Z,0
2018-01-11T02:22:41.750Z,0
2018-01-11T02:23:42.474Z,0
2018-01-11T02:24:43.184Z,0
2018-01-11T02:25:43.894Z,0
2018-01-11T02:26:44.601Z,0
2018-01-11T02:27:45.310Z,0
2018-01-11T02:28:46.033Z,0
2018-01-11T02:29:46.741Z,0
2018-01-11T02:30:47.452Z,0
2018-01-11T02:31:48.162Z,0
2018-01-11T02:32:48.882Z,0
2018-01-11T02:33:49.589Z,0
2018-01-11T02:34:50.310Z,0
2018-01-11T02:35:51.041Z,0
2018-01-11T02:36:51.758Z,0
2018-01-11T02:37:52.466Z,0
2018-01-11T02:38:53.190Z,0
2018-01-11T02:39:53.900Z,0
2018-01-11T02:40:54.609Z,0
2018-01-11T02:41:55.319Z,0
2018-01-11T02:42:56.041Z,0
2018-01-11T02:43:56.750Z,0
2018-01-11T02:44:57.457Z,0
2018-01-11T02:45:58.164Z,0
2018-01-11T02:46:58.872Z,0
2018-01-11T02:47:59.580Z,0
2018-01-11T02:49:00.290Z,0
2018-01-11T02:50:01.011Z,0
2018-01-11T02:51:01.720Z,0
2018-01-11T02:52:02.427Z,0
2018-01-11T02:53:03.148Z,0
2018-01-11T02:54:03.860Z,0
2018-01-11T02:55:04.584Z,0
2018-01-11T02:56:05.291Z,0
2018-01-11T02:57:05.999Z,0
2018-01-11T02:58:06.712Z,0
2018-01-11T02:59:07.420Z,0
2018-01-11T03:00:08.130Z,0
2018-01-11T03:01:08.854Z,0
2018-01-11T03:02:09.565Z,0
2018-01-11T03:03:10.274Z,0
2018-01-11T03:04:10.986Z,0
2018-01-11T03:05:11.691Z,0
2018-01-11T03:06:12.399Z,0
2018-01-11T03:07:13.108Z,0
2018-01-11T03:08:13.818Z,0
2018-01-11T03:09:14.526Z,0
2018-01-11T03:10:15.235Z,0
2018-01-11T03:11:15.944Z,0
2018-01-11T03:12:16.654Z,0
2018-01-11T03:13:17.363Z,0
2018-01-11T03:14:18.089Z,0
2018-01-11T03:15:18.812Z,0
2018-01-11T03:16:19.520Z,0
2018-01-11T03:17:20.228Z,0
2018-01-11T03:18:20.936Z,0
2018-01-11T03:19:21.660Z,0
2018-01-11T03:20:22.371Z,0
2018-01-11T03:21:23.076Z,0
2018-01-11T03:22:23.785Z,0
2018-01-11T03:23:24.494Z,0
2018-01-11T03:24:25.219Z,0
2018-01-11T03:25:25.942Z,0
2018-01-11T03:26:26.649Z,0
2018-01-11T03:27:27.361Z,0
2018-01-11T03:28:28.083Z,0
2018-01-11T03:29:28.805Z,0
2018-01-11T03:30:29.515Z,0
2018-01-11T03:31:30.229Z,0
2018-01-11T03:32:30.932Z,0
2018-01-11T03:33:31.656Z,0
2018-01-11T03:34:32.367Z,0
2018-01-11T03:35:33.088Z,0
2018-01-11T03:36:33.801Z,0
2018-01-11T03:37:34.505Z,0
2018-01-11T03:38:35.214Z,0
2018-01-11T03:39:35.923Z,0
2018-01-11T03:40:36.631Z,0
2018-01-11T03:41:37.341Z,0
2018-01-11T03:42:38.065Z,0
2018-01-11T03:43:38.774Z,0
2018-01-11T03:44:39.484Z,0
2018-01-11T03:45:40.192Z,0
2018-01-11T03:46:40.900Z,0
2018-01-11T03:47:41.608Z,0
2018-01-11T03:48:42.316Z,0
2018-01-11T03:49:43.025Z,0
2018-01-11T03:50:43.733Z,0
2018-01-11T03:51:44.456Z,0
2018-01-11T03:52:45.167Z,0
2018-01-11T03:53:45.876Z,0
2018-01-11T03:54:46.584Z,0
2018-01-11T03:55:47.295Z,0
2018-01-11T03:56:48.002Z,0
2018-01-11T03:57:48.709Z,0
2018-01-11T03:58:49.432Z,0
2018-01-11T03:59:50.156Z,0
2018-01-11T04:00:50.866Z,0
2018-01-11T04:01:51.587Z,0
2018-01-11T04:02:52.309Z,0
2018-01-11T04:03:53.021Z,0
2018-01-11T04:04:53.743Z,0
2018-01-11T04:05:54.454Z,0
2018-01-11T04:06:55.176Z,0
2018-01-11T04:07:55.900Z,0
2018-01-11T04:08:56.664Z,0
2018-01-11T04:09:57.330Z,0
2018-01-11T04:10:58.044Z,0
2018-01-11T04:11:58.753Z,0
2018-01-11T04:12:59.463Z,0
2018-01-11T04:14:00.174Z,0
2018-01-11T04:15:00.899Z,0
2018-01-11T04:16:01.605Z,0
2018-01-11T04:17:02.314Z,0
2018-01-11T04:18:03.022Z,0
2018-01-11T04:19:03.731Z,0
2018-01-11T04:20:04.455Z,0
2018-01-11T04:21:05.181Z,0
2018-01-11T04:22:05.906Z,0
2018-01-11T04:23:06.628Z,0
2018-01-11T04:24:07.338Z,0
2018-01-11T04:25:08.048Z,0
2018-01-11T04:26:08.772Z,0
2018-01-11T04:27:09.484Z,0
2018-01-11T04:28:10.193Z,0
2018-01-11T04:29:10.900Z,0
2018-01-11T04:30:11.609Z,0
2018-01-11T04:31:12.316Z,0
2018-01-11T04:32:13.024Z,0
2018-01-11T04:33:13.732Z,0
2018-01-11T04:34:14.439Z,0
2018-01-11T04:35:15.148Z,0
2018-01-11T04:36:15.858Z,0
2018-01-11T04:37:16.569Z,0
2018-01-11T04:38:17.294Z,0
2018-01-11T04:39:18.004Z,0
2018-01-11T04:40:18.715Z,0
2018-01-11T04:41:19.422Z,0
2018-01-11T04:42:20.131Z,0
2018-01-11T04:43:20.852Z,0
2018-01-11T04:44:21.563Z,0
2018-01-11T04:45:22.268Z,0
2018-01-11T04:46:22.977Z,0
2018-01-11T04:47:23.688Z,0
2018-01-11T04:48:24.397Z,0
2018-01-11T04:49:25.108Z,0
2018-01-11T04:50:25.821Z,0
2018-01-11T04:51:26.545Z,0
2018-01-11T04:52:27.249Z,0
2018-01-11T04:53:27.974Z,0
2018-01-11T04:54:28.684Z,0
2018-01-11T04:55:29.393Z,0
2018-01-11T04:56:30.101Z,0
2018-01-11T04:57:30.810Z,0
2018-01-11T04:58:31.518Z,0
2018-01-11T04:59:32.227Z,0
2018-01-11T05:00:32.935Z,0
2018-01-11T05:01:33.645Z,0
2018-01-11T05:02:34.353Z,0
2018-01-11T05:03:35.062Z,0
2018-01-11T05:04:35.770Z,0
2018-01-11T05:05:36.478Z,0
2018-01-11T05:06:37.189Z,0
2018-01-11T05:07:37.897Z,0
2018-01-11T05:08:38.608Z,0
2018-01-11T05:09:39.332Z,0
2018-01-11T05:10:40.055Z,0
2018-01-11T05:11:40.764Z,0
2018-01-11T05:12:41.474Z,0
2018-01-11T05:13:42.184Z,0
2018-01-11T05:14:42.895Z,0
2018-01-11T05:15:43.604Z,0
2018-01-11T05:16:44.331Z,0
2018-01-11T05:17:45.051Z,0
2018-01-11T05:18:45.761Z,0
2018-01-11T05:19:46.469Z,0
2018-01-11T05:20:47.191Z,0
2018-01-11T05:21:47.914Z,0
2018-01-11T05:22:48.624Z,0
2018-01-11T05:23:49.347Z,0
2018-01-11T05:24:50.057Z,0
2018-01-11T05:25:50.775Z,0
2018-01-11T05:26:51.486Z,0
2018-01-11T05:27:52.206Z,0
2018-01-11T05:28:52.916Z,0
2018-01-11T05:29:53.639Z,0
2018-01-11T05:30:54.348Z,0
2018-01-11T05:31:55.056Z,0
2018-01-11T05:32:55.765Z,0
2018-01-11T05:33:56.474Z,0
2018-01-11T05:34:57.182Z,0
2018-01-11T05:35:57.890Z,0
2018-01-11T05:36:58.613Z,0
2018-01-11T05:37:59.323Z,0
2018-01-11T05:39:00.042Z,0
2018-01-11T05:40:00.749Z,0
2018-01-11T05:41:01.512Z,0
2018-01-11T05:42:02.164Z,0
2018-01-11T05:43:02.890Z,0
2018-01-11T05:44:03.609Z,0
2018-01-11T05:45:04.318Z,0
2018-01-11T05:46:05.027Z,0
2018-01-11T05:47:05.736Z,0
2018-01-11T05:48:06.443Z,0
2018-01-11T05:49:07.150Z,0
2018-01-11T05:50:07.856Z,0
2018-01-11T05:51:08.563Z,0
2018-01-11T05:52:09.286Z,0
2018-01-11T05:53:09.994Z,0
2018-01-11T05:54:10.703Z,0
2018-01-11T05:55:11.426Z,0
2018-01-11T05:56:12.149Z,0
2018-01-11T05:57:12.859Z,0
2018-01-11T05:58:13.568Z,0
2018-01-11T05:59:14.276Z,0
2018-01-11T06:00:14.998Z,0
2018-01-11T06:01:15.708Z,0
2018-01-11T06:02:16.416Z,0
2018-01-11T06:03:17.141Z,0
2018-01-11T06:04:17.863Z,0
2018-01-11T06:05:18.582Z,0
2018-01-11T06:06:19.284Z,0
2018-01-11T06:07:19.992Z,0
2018-01-11T06:08:20.700Z,0
2018-01-11T06:09:21.408Z,0
2018-01-11T06:10:22.117Z,0
2018-01-11T06:11:22.826Z,0
2018-01-11T06:12:23.550Z,0
2018-01-11T06:13:24.260Z,0
2018-01-11T06:14:24.966Z,0
2018-01-11T06:15:25.673Z,0
2018-01-11T06:16:26.380Z,0
2018-01-11T06:17:27.096Z,0
2018-01-11T06:18:27.798Z,0
2018-01-11T06:19:28.507Z,0
2018-01-11T06:20:29.217Z,0
2018-01-11T06:21:29.923Z,0
2018-01-11T06:22:30.633Z,0
2018-01-11T06:23:31.338Z,0
2018-01-11T06:24:32.045Z,0
2018-01-11T06:25:32.751Z,0
2018-01-11T06:26:33.459Z,0
2018-01-11T06:27:34.165Z,0
2018-01-11T06:28:34.888Z,0
2018-01-11T06:29:35.596Z,0
2018-01-11T06:30:36.304Z,0
2018-01-11T06:31:37.011Z,0
2018-01-11T06:32:37.719Z,0
2018-01-11T06:33:38.426Z,0
2018-01-11T06:34:39.133Z,0
2018-01-11T06:35:39.841Z,0
2018-01-11T06:36:40.549Z,0
2018-01-11T06:37:41.258Z,0
2018-01-11T06:38:41.965Z,0
2018-01-11T06:39:42.674Z,0
2018-01-11T06:40:43.382Z,0
2018-01-11T06:41:44.091Z,0
2018-01-11T06:42:44.797Z,0
2018-01-11T06:43:45.504Z,0
2018-01-11T06:44:46.212Z,0
2018-01-11T06:45:46.919Z,0
2018-01-11T06:46:47.627Z,0
2018-01-11T06:47:48.336Z,0
2018-01-11T06:48:49.044Z,0
2018-01-11T06:49:49.753Z,0
2018-01-11T06:50:50.474Z,0
2018-01-11T06:51:51.196Z,0
2018-01-11T06:52:51.922Z,0
2018-01-11T06:53:52.630Z,0
2018-01-11T06:54:53.338Z,0
2018-01-11T06:55:54.061Z,0
2018-01-11T06:56:54.770Z,0
2018-01-11T06:57:55.477Z,0
2018-01-11T06:58:56.184Z,0
2018-01-11T06:59:56.891Z,0
2018-01-11T07:00:57.598Z,0
2018-01-11T07:01:58.306Z,0
2018-01-11T07:02:59.012Z,0
2018-01-11T07:03:59.735Z,0
2018-01-11T07:05:00.445Z,0
2018-01-11T07:06:01.153Z,0
2018-01-11T07:07:01.860Z,0
2018-01-11T07:08:02.566Z,0
2018-01-11T07:09:03.275Z,0
2018-01-11T07:10:03.979Z,0
2018-01-11T07:11:04.701Z,0
2018-01-11T07:12:05.408Z,0
2018-01-11T07:13:06.115Z,0
2018-01-11T07:14:06.823Z,0
2018-01-11T07:15:07.547Z,0
2018-01-11T07:16:08.257Z,0
2018-01-11T07:17:08.967Z,0
2018-01-11T07:18:09.674Z,0
2018-01-11T07:19:10.383Z,0
2018-01-11T07:20:11.089Z,0
2018-01-11T07:21:11.797Z,0
2018-01-11T07:22:12.505Z,0
2018-01-11T07:23:13.215Z,0
2018-01-11T07:24:13.925Z,0
2018-01-11T07:25:14.633Z,0
2018-01-11T07:26:15.341Z,0
2018-01-11T07:27:16.065Z,0
2018-01-11T07:28:16.775Z,0
2018-01-11T07:29:17.484Z,0
2018-01-11T07:30:18.194Z,0
2018-01-11T07:31:18.904Z,0
2018-01-11T07:32:19.612Z,0
2018-01-11T07:33:20.336Z,0
2018-01-11T07:34:21.044Z,0
2018-01-11T07:35:21.756Z,0
2018-01-11T07:36:22.468Z,0
2018-01-11T07:37:23.193Z,5
2018-01-11T07:38:23.900Z,5
2018-01-11T07:39:24.635Z,5
2018-01-11T07:40:25.319Z,5
2018-01-11T07:41:26.030Z,5
2018-01-11T07:42:26.741Z,5
2018-01-11T07:43:27.468Z,5
2018-01-11T07:44:28.193Z,10
2018-01-11T07:45:28.904Z,10
2018-01-11T07:46:29.616Z,10
2018-01-11T07:47:30.327Z,10
2018-01-11T07:48:31.038Z,10
2018-01-11T07:49:31.748Z,10
2018-01-11T07:50:32.460Z,15
2018-01-11T07:51:33.188Z,15
2018-01-11T07:52:33.911Z,15
2018-01-11T07:53:34.622Z,15
2018-01-11T07:54:35.348Z,20
2018-01-11T07:55:36.061Z,20
2018-01-11T07:56:36.772Z,20
2018-01-11T07:57:37.483Z,25
2018-01-11T07:58:38.193Z,25
2018-01-11T07:59:38.905Z,25
2018-01-11T08:00:39.618Z,25
2018-01-11T08:01:40.328Z,25
2018-01-11T08:02:41.039Z,30
2018-01-11T08:03:41.752Z,30
2018-01-11T08:04:42.463Z,30
2018-01-11T08:05:43.174Z,30
2018-01-11T08:06:43.885Z,35
2018-01-11T08:07:44.609Z,35
2018-01-11T08:08:45.338Z,35
2018-01-11T08:09:46.049Z,35
2018-01-11T08:10:46.762Z,40
2018-01-11T08:11:47.474Z,35
2018-01-11T08:12:48.187Z,40
2018-01-11T08:13:48.899Z,40
2018-01-11T08:14:49.627Z,45
2018-01-11T08:15:50.339Z,50
2018-01-11T08:16:51.053Z,50
2018-01-11T08:17:51.782Z,50
2018-01-11T08:18:52.494Z,55
2018-01-11T08:19:53.208Z,60
2018-01-11T08:20:53.932Z,65
2018-01-11T08:21:54.646Z,65
2018-01-11T08:22:55.360Z,70
2018-01-11T08:23:56.072Z,70
2018-01-11T08:24:56.787Z,70
2018-01-11T08:25:57.517Z,75
2018-01-11T08:26:58.244Z,80
2018-01-11T08:27:58.958Z,80
2018-01-11T08:28:59.673Z,85
2018-01-11T08:30:00.389Z,90
2018-01-11T08:31:01.104Z,90
2018-01-11T08:32:01.816Z,95
2018-01-11T08:33:02.530Z,100
2018-01-11T08:34:03.249Z,105
2018-01-11T08:35:03.960Z,105
2018-01-11T08:36:04.693Z,105
2018-01-11T08:37:05.408Z,105
2018-01-11T08:38:06.123Z,105
2018-01-11T08:39:06.851Z,110
2018-01-11T08:40:07.566Z,115
2018-01-11T08:41:08.282Z,115
2018-01-11T08:42:09.013Z,115
2018-01-11T08:43:09.730Z,115
2018-01-11T08:44:10.447Z,120
2018-01-11T08:45:11.164Z,120
2018-01-11T08:46:11.895Z,125
2018-01-11T08:47:12.612Z,130
2018-01-11T08:48:13.345Z,130
2018-01-11T08:49:14.060Z,135
2018-01-11T08:50:14.778Z,145
2018-01-11T08:51:15.493Z,145
2018-01-11T08:52:16.209Z,165
2018-01-11T08:53:16.926Z,175
2018-01-11T08:54:17.643Z,155
2018-01-11T08:55:18.359Z,155
2018-01-11T08:56:19.091Z,160
2018-01-11T08:57:19.811Z,165
2018-01-11T08:58:20.540Z,175
2018-01-11T08:59:21.256Z,195
2018-01-11T09:00:21.988Z,190
2018-01-11T09:01:22.706Z,190
2018-01-11T09:02:23.438Z,225
2018-01-11T09:03:24.169Z,225
2018-01-11T09:04:24.885Z,240
2018-01-11T09:05:25.619Z,250
2018-01-11T09:06:26.343Z,265
2018-01-11T09:07:27.060Z,250
2018-01-11T09:08:27.794Z,265
2018-01-11T09:09:28.513Z,260
2018-01-11T09:10:29.233Z,275
2018-01-11T09:11:29.956Z,280
2018-01-11T09:12:30.675Z,295
2018-01-11T09:13:31.396Z,300
2018-01-11T09:14:32.132Z,305
2018-01-11T09:15:32.853Z,310
2018-01-11T09:16:33.575Z,315
2018-01-11T09:17:34.297Z,315
2018-01-11T09:18:35.020Z,310
2018-01-11T09:19:35.759Z,310
2018-01-11T09:20:36.481Z,310
2018-01-11T09:21:37.203Z,305
2018-01-11T09:22:37.940Z,300
2018-01-11T09:23:38.662Z,295
2018-01-11T09:24:39.383Z,295
2018-01-11T09:25:40.109Z,290
2018-01-11T09:26:40.842Z,270
2018-01-11T09:27:41.605Z,265
2018-01-11T09:28:42.301Z,270
2018-01-11T09:29:43.025Z,275
2018-01-11T09:30:43.746Z,280
2018-01-11T09:31:44.484Z,295
2018-01-11T09:32:45.206Z,320
2018-01-11T09:33:45.928Z,335
2018-01-11T09:34:46.651Z,350
2018-01-11T09:35:47.375Z,355
2018-01-11T09:36:48.098Z,365
2018-01-11T09:37:48.834Z,385
2018-01-11T09:38:49.559Z,400
2018-01-11T09:39:50.281Z,410
2018-01-11T09:40:51.006Z,400
2018-01-11T09:41:51.730Z,375
2018-01-11T09:42:52.477Z,405
2018-01-11T09:43:53.194Z,365
2018-01-11T09:44:53.931Z,325
2018-01-11T09:45:54.658Z,375
2018-01-11T09:46:55.395Z,415
2018-01-11T09:47:56.120Z,495
2018-01-11T09:48:56.853Z,510
2018-01-11T09:49:57.582Z,550
2018-01-11T09:50:58.322Z,595
2018-01-11T09:51:59.047Z,610
2018-01-11T09:52:59.772Z,605
2018-01-11T09:54:00.500Z,585
2018-01-11T09:55:01.227Z,580
2018-01-11T09:56:01.955Z,580
2018-01-11T09:57:02.699Z,600
2018-01-11T09:58:03.445Z,625
2018-01-11T09:59:04.169Z,620
2018-01-11T10:00:04.900Z,625
2018-01-11T10:01:05.623Z,635
2018-01-11T10:02:06.364Z,655
2018-01-11T10:03:07.095Z,675
2018-01-11T10:04:07.822Z,675
2018-01-11T10:05:08.567Z,680
2018-01-11T10:06:09.296Z,680
2018-01-11T10:07:10.027Z,685
2018-01-11T10:08:10.763Z,690
2018-01-11T10:09:11.505Z,670
2018-01-11T10:10:12.235Z,665
2018-01-11T10:11:12.964Z,635
2018-01-11T10:12:13.697Z,625
2018-01-11T10:13:14.442Z,435
2018-01-11T10:14:15.173Z,345
2018-01-11T10:15:15.902Z,260
2018-01-11T10:16:16.631Z,240
2018-01-11T10:17:17.373Z,215
2018-01-11T10:18:18.122Z,195
2018-01-11T10:19:18.843Z,180
2018-01-11T10:20:19.584Z,170
2018-01-11T10:21:20.312Z,165
2018-01-11T10:22:21.052Z,165
2018-01-11T10:23:21.813Z,160
2018-01-11T10:24:22.531Z,160
2018-01-11T10:25:23.255Z,160
2018-01-11T10:26:23.982Z,165
2018-01-11T10:27:24.720Z,170
2018-01-11T10:28:25.444Z,175
2018-01-11T10:29:26.169Z,190
2018-01-11T10:30:26.896Z,205
2018-01-11T10:31:27.620Z,215
2018-01-11T10:32:28.343Z,230
2018-01-11T10:33:29.065Z,245
2018-01-11T10:34:29.789Z,260
2018-01-11T10:35:30.513Z,285
2018-01-11T10:36:31.296Z,340
2018-01-11T10:37:31.961Z,305
2018-01-11T10:38:32.681Z,305
2018-01-11T10:39:33.406Z,305
2018-01-11T10:40:34.129Z,300
2018-01-11T10:41:34.868Z,295
2018-01-11T10:42:35.592Z,285
2018-01-11T10:43:36.315Z,280
2018-01-11T10:44:37.051Z,275
2018-01-11T10:45:37.777Z,275
2018-01-11T10:46:38.497Z,280
2018-01-11T10:47:39.232Z,280
2018-01-11T10:48:39.953Z,285
2018-01-11T10:49:40.678Z,285
2018-01-11T10:50:41.399Z,290
2018-01-11T10:51:42.137Z,295
2018-01-11T10:52:42.861Z,305
2018-01-11T10:53:43.584Z,295
2018-01-11T10:54:44.308Z,295
2018-01-11T10:55:45.030Z,295
2018-01-11T10:56:45.754Z,300
2018-01-11T10:57:46.491Z,300
2018-01-11T10:58:47.212Z,295
2018-01-11T10:59:47.935Z,295
2018-01-11T11:00:48.658Z,285
2018-01-11T11:01:49.380Z,275
2018-01-11T11:02:50.102Z,265
2018-01-11T11:03:50.822Z,255
2018-01-11T11:04:51.557Z,245
2018-01-11T11:05:52.279Z,245
2018-01-11T11:06:53.000Z,245
2018-01-11T11:07:53.738Z,250
2018-01-11T11:08:54.471Z,255
2018-01-11T11:09:55.192Z,265
2018-01-11T11:10:55.929Z,265
2018-01-11T11:11:56.650Z,275
2018-01-11T11:12:57.374Z,275
2018-01-11T11:13:58.095Z,280
2018-01-11T11:14:58.814Z,280
2018-01-11T11:15:59.537Z,280
2018-01-11T11:17:00.256Z,275
2018-01-11T11:18:00.975Z,275
2018-01-11T11:19:01.696Z,275
2018-01-11T11:20:02.421Z,270
2018-01-11T11:21:03.138Z,265
2018-01-11T11:22:03.860Z,265
2018-01-11T11:23:04.579Z,255
2018-01-11T11:24:05.300Z,250
2018-01-11T11:25:06.022Z,235
2018-01-11T11:26:06.757Z,225
2018-01-11T11:27:07.476Z,220
2018-01-11T11:28:08.198Z,220
2018-01-11T11:29:08.919Z,220
2018-01-11T11:30:09.639Z,215
2018-01-11T11:31:10.360Z,210
2018-01-11T11:32:11.078Z,205
2018-01-11T11:33:11.799Z,195
2018-01-11T11:34:12.520Z,185
2018-01-11T11:35:13.240Z,175
2018-01-11T11:36:13.961Z,165
2018-01-11T11:37:14.680Z,155
2018-01-11T11:38:15.399Z,150
2018-01-11T11:39:16.120Z,140
2018-01-11T11:40:16.841Z,135
2018-01-11T11:41:17.576Z,130
2018-01-11T11:42:18.298Z,125
2018-01-11T11:43:19.016Z,125
2018-01-11T11:44:19.735Z,125
2018-01-11T11:45:20.456Z,120
2018-01-11T11:46:21.175Z,120
2018-01-11T11:47:21.909Z,120
2018-01-11T11:48:22.629Z,120
2018-01-11T11:49:23.353Z,125
2018-01-11T11:50:24.068Z,130
2018-01-11T11:51:24.790Z,130
2018-01-11T11:52:25.508Z,135
2018-01-11T11:53:26.227Z,140
2018-01-11T11:54:26.963Z,140
2018-01-11T11:55:27.688Z,145
2018-01-11T11:56:28.418Z,145
2018-01-11T11:57:29.148Z,145
2018-01-11T11:58:29.869Z,140
2018-01-11T11:59:30.586Z,135
2018-01-11T12:00:31.307Z,130
2018-01-11T12:01:32.026Z,125
2018-01-11T12:02:32.744Z,120
2018-01-11T12:03:33.465Z,120
2018-01-11T12:04:34.182Z,120
2018-01-11T12:05:34.902Z,125
2018-01-11T12:06:35.635Z,130
2018-01-11T12:07:36.354Z,135
2018-01-11T12:08:37.071Z,140
2018-01-11T12:09:37.807Z,145
2018-01-11T12:10:38.537Z,155
2018-01-11T12:11:39.256Z,155
2018-01-11T12:12:39.988Z,160
2018-01-11T12:13:40.724Z,160
2018-01-11T12:14:41.442Z,160
2018-01-11T12:15:42.161Z,160
2018-01-11T12:16:42.879Z,160
2018-01-11T12:17:43.613Z,160
2018-01-11T12:18:44.332Z,165
2018-01-11T12:19:45.051Z,170
2018-01-11T12:20:45.769Z,175
2018-01-11T12:21:46.489Z,175
2018-01-11T12:22:47.206Z,175
2018-01-11T12:23:47.941Z,170
2018-01-11T12:24:48.657Z,165
2018-01-11T12:25:49.390Z,160
2018-01-11T12:26:50.108Z,155
2018-01-11T12:27:50.832Z,155
2018-01-11T12:28:51.560Z,160
2018-01-11T12:29:52.279Z,160
2018-01-11T12:30:52.998Z,160
2018-01-11T12:31:53.719Z,155
2018-01-11T12:32:54.438Z,150
2018-01-11T12:33:55.156Z,145
2018-01-11T12:34:55.875Z,140
2018-01-11T12:35:56.593Z,130
2018-01-11T12:36:57.314Z,120
2018-01-11T12:37:58.031Z,110
2018-01-11T12:38:58.761Z,100
2018-01-11T12:39:59.478Z,95
2018-01-11T12:41:00.196Z,90
2018-01-11T12:42:00.915Z,85
2018-01-11T12:43:01.632Z,80
2018-01-11T12:44:02.348Z,80
2018-01-11T12:45:03.065Z,80
2018-01-11T12:46:03.783Z,75
2018-01-11T12:47:04.502Z,75
2018-01-11T12:48:05.219Z,70
2018-01-11T12:49:05.935Z,65
2018-01-11T12:50:06.653Z,65
2018-01-11T12:51:07.371Z,60
2018-01-11T12:52:08.089Z,60
2018-01-11T12:53:08.808Z,60
2018-01-11T12:54:09.525Z,60
2018-01-11T12:55:10.242Z,65
2018-01-11T12:56:10.958Z,65
2018-01-11T12:57:11.674Z,60
2018-01-11T12:58:12.393Z,60
2018-01-11T12:59:13.126Z,60
2018-01-11T13:00:13.858Z,55
2018-01-11T13:01:14.573Z,55
2018-01-11T13:02:15.290Z,50
2018-01-11T13:03:16.007Z,50
2018-01-11T13:04:16.721Z,45
2018-01-11T13:05:17.437Z,45
2018-01-11T13:06:18.158Z,45
2018-01-11T13:07:18.886Z,40
2018-01-11T13:08:19.619Z,40
2018-01-11T13:09:20.336Z,40
2018-01-11T13:10:21.055Z,40
2018-01-11T13:11:21.772Z,40
2018-01-11T13:12:22.486Z,40
2018-01-11T13:13:23.203Z,40
2018-01-11T13:14:23.933Z,40
2018-01-11T13:15:24.650Z,40
2018-01-11T13:16:25.365Z,40
2018-01-11T13:17:26.081Z,40
2018-01-11T13:18:26.796Z,40
2018-01-11T13:19:27.511Z,40
2018-01-11T13:20:28.227Z,40
2018-01-11T13:21:28.939Z,40
2018-01-11T13:22:29.655Z,40
2018-01-11T13:23:30.371Z,40
2018-01-11T13:24:31.087Z,45
2018-01-11T13:25:31.801Z,45
2018-01-11T13:26:32.516Z,45
2018-01-11T13:27:33.232Z,50
2018-01-11T13:28:33.945Z,50
2018-01-11T13:29:34.660Z,50
2018-01-11T13:30:35.391Z,50
2018-01-11T13:31:36.119Z,50
2018-01-11T13:32:36.854Z,50
2018-01-11T13:33:37.567Z,50
2018-01-11T13:34:38.278Z,45
2018-01-11T13:35:38.993Z,45
2018-01-11T13:36:39.725Z,40
2018-01-11T13:37:40.441Z,40
2018-01-11T13:38:41.157Z,40
2018-01-11T13:39:41.870Z,40
2018-01-11T13:40:42.586Z,40
2018-01-11T13:41:43.304Z,40
2018-01-11T13:42:44.017Z,40
2018-01-11T13:43:44.733Z,40
2018-01-11T13:44:45.462Z,40
2018-01-11T13:45:46.176Z,35
2018-01-11T13:46:46.891Z,35
2018-01-11T13:47:47.621Z,35
2018-01-11T13:48:48.336Z,35
2018-01-11T13:49:49.051Z,35
2018-01-11T13:50:49.765Z,35
2018-01-11T13:51:50.496Z,35
2018-01-11T13:52:51.225Z,35
2018-01-11T13:53:51.940Z,35
2018-01-11T13:54:52.656Z,35
2018-01-11T13:55:53.370Z,35
2018-01-11T13:56:54.086Z,35
2018-01-11T13:57:54.817Z,35
2018-01-11T13:58:55.533Z,35
2018-01-11T13:59:56.249Z,30
2018-01-11T14:00:56.961Z,30
2018-01-11T14:01:57.676Z,30
2018-01-11T14:02:58.389Z,30
2018-01-11T14:03:59.110Z,30
2018-01-11T14:04:59.831Z,30
2018-01-11T14:06:00.545Z,30
2018-01-11T14:07:01.258Z,30
2018-01-11T14:08:01.973Z,30
2018-01-11T14:09:02.687Z,30
2018-01-11T14:10:03.400Z,30
2018-01-11T14:11:04.114Z,30
2018-01-11T14:12:04.829Z,30
2018-01-11T14:13:05.541Z,30
2018-01-11T14:14:06.253Z,30
2018-01-11T14:15:06.966Z,30
2018-01-11T14:16:07.693Z,30
2018-01-11T14:17:08.405Z,30
2018-01-11T14:18:09.120Z,30
2018-01-11T14:19:09.835Z,35
2018-01-11T14:20:10.615Z,35
2018-01-11T14:21:11.292Z,35
2018-01-11T14:22:11.982Z,35
2018-01-11T14:23:12.762Z,35
2018-01-11T14:24:13.427Z,35
2018-01-11T14:25:14.142Z,35
2018-01-11T14:26:14.858Z,30
2018-01-11T14:27:15.571Z,30
2018-01-11T14:28:16.284Z,30
2018-01-11T14:29:16.998Z,30
2018-01-11T14:30:17.711Z,30
2018-01-11T14:31:18.423Z,25
2018-01-11T14:32:19.135Z,25
2018-01-11T14:33:19.846Z,25